Time;durP1;ratioP1;P1;durP2;ratioP2;P2;SDS_P1;SDS_P2;PMS_P1;PMS_P2;Temp;Humidity;BMP_temperature;BMP_pressure;BME280_temperature;BME280_humidity;BME280_pressure;Samples;Min_cycle;Max_cycle;Signal;HPM_P1;HPM_P2
2021/01/21 00:38:23;;;;;;;7.40;3.27;;;7.30;99.90;;;;;;1430020;23;20495;-82
2021/01/21 13:07:00;;;;;;;6.70;2.63;;;7.20;99.90;;;;;;4990985;28;20210;-89
2021/01/21 13:09:26;;;;;;;9.10;3.47;;;7.30;99.90;;;;;;4984139;28;20644;-89
2021/01/21 13:11:52;;;;;;;8.10;1.00;;;7.30;99.90;;;;;;4971630;28;20668;-89
2021/01/21 13:14:17;;;;;;;5.07;1.33;;;7.30;99.90;;;;;;4992025;28;20185;-89
2021/01/21 13:16:43;;;;;;;3.43;0.80;;;7.30;99.90;;;;;;4962238;28;20189;-89
2021/01/21 13:26:49;;;;;;;7.00;0.83;;;7.30;99.90;;;;;;4989462;28;20205;-89
2021/01/21 13:29:14;;;;;;;7.47;1.50;;;7.30;99.90;;;;;;4967128;28;20182;-90
2021/01/21 13:31:40;;;;;;;8.13;1.87;;;7.30;99.90;;;;;;4991268;28;20284;-89
2021/01/21 13:34:05;;;;;;;8.10;1.27;;;7.40;99.90;;;;;;4963834;28;20217;-89
2021/01/21 13:36:32;;;;;;;7.90;1.47;;;7.40;99.90;;;;;;4975827;28;20219;-89
2021/01/21 13:38:57;;;;;;;5.33;1.10;;;7.40;99.90;;;;;;4974843;28;20205;-89
2021/01/21 13:41:24;;;;;;;5.40;1.10;;;7.30;99.90;;;;;;4974993;28;20553;-90
2021/01/21 13:43:50;;;;;;;7.73;0.90;;;7.40;99.90;;;;;;4975660;28;20193;-89
2021/01/21 13:46:15;;;;;;;7.57;1.00;;;7.30;99.90;;;;;;4975312;28;20202;-89
2021/01/21 13:48:41;;;;;;;6.63;1.33;;;7.30;99.90;;;;;;4974501;28;20659;-88
2021/01/21 13:51:09;;;;;;;6.70;1.00;;;7.30;99.90;;;;;;4982051;28;20217;-89
2021/01/21 13:53:34;;;;;;;3.50;0.83;;;7.30;99.90;;;;;;4974006;28;20632;-89
2021/01/21 13:56:03;;;;;;;4.90;1.03;;;7.40;99.90;;;;;;4991621;28;20216;-89
2021/01/21 13:58:29;;;;;;;7.00;1.53;;;7.30;99.90;;;;;;4979073;28;20547;-89
2021/01/21 14:00:54;;;;;;;5.57;1.00;;;7.30;99.90;;;;;;4974408;28;20190;-90
2021/01/21 14:03:20;;;;;;;4.03;0.90;;;7.30;99.90;;;;;;4970849;28;20196;-89
2021/01/21 14:05:45;;;;;;;5.63;1.50;;;7.30;99.90;;;;;;4970416;28;20210;-89
2021/01/21 14:08:10;;;;;;;4.70;1.30;;;7.30;99.90;;;;;;4972396;28;20196;-89
2021/01/21 14:10:37;;;;;;;6.00;1.70;;;7.30;99.90;;;;;;4968718;28;20236;-90
2021/01/21 14:13:02;;;;;;;5.20;0.80;;;7.20;99.90;;;;;;4968660;28;20189;-89
2021/01/21 14:15:29;;;;;;;6.80;1.20;;;7.20;99.90;;;;;;4968528;28;20702;-89
2021/01/21 14:17:54;;;;;;;8.07;1.90;;;7.30;99.90;;;;;;4968262;28;20655;-89
2021/01/21 14:20:22;;;;;;;7.03;1.20;;;7.30;99.90;;;;;;4969323;28;20260;-91
2021/01/21 14:22:47;;;;;;;8.17;1.20;;;7.20;99.90;;;;;;4968812;28;20520;-89
2021/01/21 14:25:13;;;;;;;5.40;1.00;;;7.30;99.90;;;;;;4971213;28;20320;-90
2021/01/21 14:27:39;;;;;;;4.47;0.80;;;7.30;99.90;;;;;;4974701;28;20188;-91
2021/01/21 14:30:05;;;;;;;4.33;1.00;;;7.30;99.90;;;;;;4975087;28;20178;-91
2021/01/21 14:32:31;;;;;;;5.30;1.07;;;7.30;99.90;;;;;;4972885;28;20247;-90
2021/01/21 14:34:56;;;;;;;6.27;1.13;;;7.30;99.90;;;;;;4991480;28;20217;-91
2021/01/21 14:37:22;;;;;;;4.77;1.33;;;7.30;99.90;;;;;;4974465;28;20687;-90
2021/01/21 14:39:47;;;;;;;6.30;1.33;;;7.30;99.90;;;;;;4972942;28;20181;-91
2021/01/21 14:42:13;;;;;;;5.53;1.13;;;7.30;99.90;;;;;;4973150;28;20565;-90
2021/01/21 14:44:40;;;;;;;7.80;1.23;;;7.30;99.90;;;;;;4974788;28;20259;-90
2021/01/21 14:47:07;;;;;;;6.33;1.33;;;7.20;99.90;;;;;;4974359;28;20224;-91
2021/01/21 14:49:32;;;;;;;5.80;1.20;;;7.20;99.90;;;;;;4991574;28;20190;-91
2021/01/21 14:51:58;;;;;;;6.83;1.30;;;7.10;99.90;;;;;;4975333;28;20580;-91
2021/01/21 14:54:24;;;;;;;6.60;1.10;;;7.20;99.90;;;;;;4977262;28;20197;-90
2021/01/21 14:56:50;;;;;;;7.80;1.37;;;7.20;99.90;;;;;;4978474;28;20177;-92
2021/01/21 14:59:15;;;;;;;5.00;1.17;;;7.20;99.90;;;;;;4977664;28;20184;-90
2021/01/21 15:01:41;;;;;;;9.63;1.50;;;7.20;99.90;;;;;;4977889;28;20604;-91
2021/01/21 15:04:07;;;;;;;5.10;0.97;;;7.20;99.90;;;;;;4977519;28;20304;-91
2021/01/21 15:06:36;;;;;;;7.97;1.37;;;7.20;99.90;;;;;;4982880;28;20200;-93
2021/01/21 15:12:37;;;;;;;7.17;1.23;;;7.20;99.90;;;;;;4990327;28;20204;-92
2021/01/21 15:15:07;;;;;;;7.20;1.37;;;7.20;99.90;;;;;;4989366;28;20228;-92
2021/01/21 15:18:11;;;;;;;5.73;1.27;;;7.10;99.90;;;;;;4988219;28;20304;-93
2021/01/21 15:21:06;;;;;;;7.47;1.40;;;7.10;99.90;;;;;;4978205;28;20222;-92
2021/01/21 15:23:33;;;;;;;6.70;1.50;;;7.10;99.90;;;;;;4996856;28;20567;-89
2021/01/21 15:25:58;;;;;;;7.03;1.20;;;7.00;99.90;;;;;;4974226;28;20805;-91
2021/01/21 15:28:26;;;;;;;4.27;1.20;;;7.00;99.90;;;;;;4978206;28;20185;-92
2021/01/21 15:30:52;;;;;;;9.77;1.67;;;7.10;99.90;;;;;;4982892;28;20213;-92
2021/01/21 15:33:18;;;;;;;11.77;1.80;;;7.00;99.90;;;;;;4982545;28;20516;-92
2021/01/21 15:35:43;;;;;;;9.07;2.00;;;7.10;99.90;;;;;;4980716;28;20220;-92
2021/01/21 15:38:09;;;;;;;7.43;1.53;;;7.30;99.90;;;;;;4978381;28;20695;-92
2021/01/21 15:40:37;;;;;;;7.43;1.30;;;7.40;99.90;;;;;;4979169;28;20209;-92
2021/01/21 15:43:05;;;;;;;5.77;1.27;;;7.50;99.90;;;;;;4984294;28;20192;-92
2021/01/21 15:45:30;;;;;;;7.67;1.60;;;7.50;99.90;;;;;;4979643;28;20235;-91
2021/01/21 15:47:56;;;;;;;7.47;1.60;;;7.40;99.90;;;;;;4973589;28;20194;-91
2021/01/21 15:50:23;;;;;;;7.60;1.13;;;7.40;99.90;;;;;;4973818;28;20704;-91
2021/01/21 15:52:50;;;;;;;7.40;1.40;;;7.30;99.90;;;;;;4978222;28;20181;-92
2021/01/21 15:55:18;;;;;;;6.60;1.27;;;7.30;99.90;;;;;;4978326;28;20209;-92
2021/01/21 15:57:44;;;;;;;5.57;1.40;;;7.30;99.90;;;;;;4958428;28;20209;-92
2021/01/21 16:00:10;;;;;;;6.20;1.10;;;7.20;99.90;;;;;;4975025;28;20186;-92
2021/01/21 16:02:36;;;;;;;6.00;1.47;;;7.10;99.90;;;;;;4973862;28;20280;-92
2021/01/21 16:05:02;;;;;;;7.50;1.50;;;7.10;99.90;;;;;;4976613;28;20298;-91
2021/01/21 16:07:27;;;;;;;12.07;1.77;;;7.10;99.90;;;;;;4974980;28;20185;-91
2021/01/21 16:09:53;;;;;;;8.17;1.37;;;7.10;99.90;;;;;;4972183;28;20223;-89
2021/01/21 16:12:18;;;;;;;7.63;1.20;;;7.10;99.90;;;;;;4971017;28;20217;-91
2021/01/21 16:14:44;;;;;;;8.23;1.50;;;7.10;99.90;;;;;;4976174;28;20558;-90
2021/01/21 16:17:10;;;;;;;6.67;1.30;;;7.10;99.90;;;;;;4976289;28;20265;-91
2021/01/21 16:19:35;;;;;;;5.07;1.00;;;7.00;99.90;;;;;;4973619;28;20192;-91
2021/01/21 16:22:01;;;;;;;5.00;1.03;;;7.10;99.90;;;;;;4972519;28;20217;-91
2021/01/21 16:24:26;;;;;;;5.83;1.17;;;7.10;99.90;;;;;;4970945;28;20691;-92
2021/01/21 16:26:52;;;;;;;6.73;1.10;;;7.10;99.90;;;;;;4977984;28;20207;-91
2021/01/21 16:29:17;;;;;;;6.23;1.13;;;7.10;99.90;;;;;;4977706;28;20181;-91
2021/01/21 16:31:43;;;;;;;6.17;1.10;;;7.00;99.90;;;;;;4971836;28;20296;-92
2021/01/21 16:34:09;;;;;;;5.27;1.23;;;7.00;99.90;;;;;;4977027;28;20575;-92
2021/01/21 16:36:35;;;;;;;7.57;1.40;;;7.00;99.90;;;;;;4975274;28;20181;-92
2021/01/21 16:39:01;;;;;;;5.90;1.40;;;7.10;99.90;;;;;;4975365;28;20188;-91
2021/01/21 16:41:26;;;;;;;4.70;1.10;;;7.00;99.90;;;;;;4991858;28;20245;-91
2021/01/21 16:43:52;;;;;;;4.23;1.50;;;7.10;99.90;;;;;;4989911;28;20210;-91
2021/01/21 16:46:17;;;;;;;8.17;2.03;;;7.10;99.90;;;;;;4973297;28;20209;-93
2021/01/21 16:48:44;;;;;;;4.50;0.90;;;7.00;99.90;;;;;;4978924;28;20185;-92
2021/01/21 16:51:10;;;;;;;10.03;1.40;;;7.00;99.90;;;;;;4975291;28;20680;-91
2021/01/21 16:53:35;;;;;;;4.37;1.20;;;7.00;99.90;;;;;;4978111;28;20213;-92
2021/01/21 16:56:01;;;;;;;5.43;1.10;;;7.00;99.90;;;;;;4979441;28;21026;-93
2021/01/21 16:58:27;;;;;;;12.23;3.80;;;7.00;99.90;;;;;;4980263;28;20192;-92
2021/01/21 17:00:52;;;;;;;5.80;1.50;;;7.00;99.90;;;;;;4981432;28;20645;-93
2021/01/21 17:03:18;;;;;;;6.73;1.40;;;7.00;99.90;;;;;;4980548;28;20188;-92
2021/01/21 17:05:43;;;;;;;4.37;1.20;;;7.00;99.90;;;;;;4981775;28;20201;-93
2021/01/21 17:08:09;;;;;;;5.97;1.47;;;7.00;99.90;;;;;;4981934;28;20189;-93
2021/01/21 17:10:35;;;;;;;5.23;1.47;;;7.00;99.90;;;;;;4985593;28;20196;-92
2021/01/21 17:13:00;;;;;;;7.60;1.50;;;7.00;99.90;;;;;;4987414;28;20184;-93
2021/01/21 17:15:26;;;;;;;3.80;1.20;;;7.10;99.90;;;;;;4983346;28;20244;-94
2021/01/21 17:17:51;;;;;;;7.47;1.37;;;7.00;99.90;;;;;;4991457;28;20166;-93
2021/01/21 17:20:20;;;;;;;5.23;1.17;;;7.00;99.90;;;;;;4987168;28;20185;-93
2021/01/21 17:22:46;;;;;;;3.97;1.10;;;7.00;99.90;;;;;;4987051;28;20185;-93
2021/01/21 17:25:12;;;;;;;7.97;1.33;;;7.00;99.90;;;;;;4979034;28;20217;-94
2021/01/21 17:27:37;;;;;;;10.67;2.40;;;7.00;99.90;;;;;;4992447;28;20274;-94
2021/01/21 17:30:04;;;;;;;6.10;1.40;;;7.00;99.90;;;;;;4988937;28;20185;-94
2021/01/21 17:32:31;;;;;;;5.93;1.23;;;7.00;99.90;;;;;;4991219;28;20248;-94
2021/01/21 17:34:57;;;;;;;5.37;1.60;;;7.10;99.90;;;;;;4990918;28;20197;-94
2021/01/21 17:37:28;;;;;;;5.00;1.30;;;7.00;99.90;;;;;;4975207;28;20182;-93
2021/01/21 17:40:16;;;;;;;6.07;1.37;;;7.00;99.90;;;;;;4987995;28;20181;-91
2021/01/21 17:42:48;;;;;;;7.17;2.17;;;7.00;99.90;;;;;;4986576;28;20181;-92
2021/01/21 17:45:35;;;;;;;5.87;1.77;;;7.00;99.90;;;;;;4974561;28;20199;-91
2021/01/21 17:48:00;;;;;;;6.33;1.50;;;7.00;99.90;;;;;;4982069;28;20219;-92
2021/01/21 17:50:26;;;;;;;4.10;1.30;;;7.10;99.90;;;;;;4978107;28;20266;-92
2021/01/21 17:52:51;;;;;;;8.43;2.03;;;7.10;99.90;;;;;;4978547;28;20188;-92
2021/01/21 17:55:22;;;;;;;5.97;1.60;;;7.10;99.90;;;;;;4975525;28;20201;-92
2021/01/21 17:57:48;;;;;;;6.57;1.97;;;7.10;99.90;;;;;;4974232;28;20213;-92
2021/01/21 18:00:14;;;;;;;8.07;1.83;;;7.10;99.90;;;;;;4977652;28;20667;-91
2021/01/21 18:02:40;;;;;;;9.97;2.00;;;7.10;99.90;;;;;;4976568;28;20199;-92
2021/01/21 18:05:06;;;;;;;5.53;1.30;;;7.10;99.90;;;;;;4974765;28;20201;-92
2021/01/21 18:07:31;;;;;;;6.57;1.40;;;7.00;99.90;;;;;;4977975;28;20190;-91
2021/01/21 18:09:57;;;;;;;5.43;1.37;;;7.00;99.90;;;;;;4973075;28;20178;-92
2021/01/21 18:12:23;;;;;;;7.97;2.10;;;7.00;99.90;;;;;;4974755;28;20664;-92
2021/01/21 18:14:48;;;;;;;7.57;1.60;;;7.00;99.90;;;;;;4972724;28;20204;-91
2021/01/21 18:17:14;;;;;;;5.73;1.33;;;7.00;99.90;;;;;;4972595;28;20545;-91
2021/01/21 18:19:39;;;;;;;6.57;1.90;;;6.90;99.90;;;;;;4975540;28;20185;-91
2021/01/21 18:22:05;;;;;;;5.93;1.20;;;6.90;99.90;;;;;;4974292;28;20209;-91
2021/01/21 18:24:32;;;;;;;4.27;1.20;;;6.90;99.90;;;;;;4972574;28;20205;-90
2021/01/21 18:26:58;;;;;;;7.33;1.60;;;6.90;99.90;;;;;;4974713;28;20212;-95
2021/01/21 18:29:28;;;;;;;5.53;2.00;;;6.90;99.90;;;;;;4975492;28;20942;-90
2021/01/21 18:31:54;;;;;;;10.77;1.93;;;6.80;99.90;;;;;;4970953;28;20201;-91
2021/01/21 18:34:19;;;;;;;5.60;1.63;;;6.80;99.90;;;;;;4976110;28;20703;-91
2021/01/21 18:36:45;;;;;;;6.73;1.37;;;6.80;99.90;;;;;;4976011;28;20189;-92
2021/01/21 18:39:10;;;;;;;6.47;1.37;;;6.80;99.90;;;;;;4979782;28;20185;-94
2021/01/21 18:41:36;;;;;;;5.80;1.23;;;6.70;99.90;;;;;;4979894;28;20189;-92
2021/01/21 18:44:04;;;;;;;4.30;0.90;;;6.80;99.90;;;;;;4980536;28;20192;-92
2021/01/21 18:46:29;;;;;;;6.63;1.30;;;6.80;99.90;;;;;;4979258;28;20195;-94
2021/01/21 18:48:55;;;;;;;5.53;0.93;;;6.70;99.90;;;;;;4980392;28;20182;-94
2021/01/21 18:51:21;;;;;;;3.97;1.10;;;6.70;99.90;;;;;;4980435;28;20209;-93
2021/01/21 18:53:47;;;;;;;5.93;1.37;;;6.70;99.90;;;;;;4982382;28;20526;-93
2021/01/21 18:56:13;;;;;;;5.60;1.53;;;6.70;99.90;;;;;;4979436;28;20325;-93
2021/01/21 18:58:39;;;;;;;3.67;1.20;;;6.70;99.90;;;;;;4967438;28;20190;-90
2021/01/21 19:01:05;;;;;;;7.77;1.13;;;6.70;99.90;;;;;;4973118;28;20192;-94
2021/01/21 19:03:32;;;;;;;8.43;1.43;;;6.70;99.90;;;;;;4979123;28;20204;-93
2021/01/21 19:05:57;;;;;;;4.60;1.10;;;6.70;99.90;;;;;;4979262;28;20208;-92
2021/01/21 19:08:23;;;;;;;7.40;2.10;;;6.70;99.90;;;;;;4979663;28;20273;-93
2021/01/21 19:10:49;;;;;;;4.13;1.20;;;6.80;99.90;;;;;;4979033;28;20229;-94
2021/01/21 19:13:15;;;;;;;6.73;1.00;;;6.90;99.90;;;;;;4981113;28;20181;-94
2021/01/21 19:15:40;;;;;;;8.10;1.50;;;6.90;99.90;;;;;;4981726;28;20272;-92
2021/01/21 19:18:06;;;;;;;5.23;1.13;;;6.90;99.90;;;;;;4978887;28;20803;-94
2021/01/21 19:20:31;;;;;;;7.93;1.47;;;6.90;99.90;;;;;;4983131;28;20456;-93
2021/01/21 19:56:10;;;;;;;5.90;1.23;;;6.90;99.90;;;;;;602067;23;20481;-92
2021/01/21 19:58:35;;;;;;;3.47;1.30;;;6.90;99.90;;;;;;4938177;29;20210;-94
2021/01/21 20:01:01;;;;;;;6.90;1.27;;;6.90;99.90;;;;;;4942224;29;20253;-93
2021/01/21 20:03:26;;;;;;;5.20;1.20;;;6.80;99.90;;;;;;4946647;29;20835;-92
2021/01/21 20:05:55;;;;;;;4.73;1.20;;;6.90;99.90;;;;;;4940019;29;20198;-93
2021/01/21 20:08:26;;;;;;;7.53;1.40;;;6.90;99.90;;;;;;4938952;29;20222;-93
2021/01/21 20:11:46;;;;;;;5.00;1.30;;;6.90;99.90;;;;;;5067704;23;20221;-86
2021/01/21 20:14:29;;;;;;;7.20;1.30;;;6.90;99.90;;;;;;5099179;23;20205;-84
2021/01/21 20:17:00;;;;;;;7.83;1.70;;;6.90;99.90;;;;;;5004941;28;20245;-86
2021/01/21 20:20:09;;;;;;;7.97;1.77;;;6.90;99.90;;;;;;4985614;28;20214;-86
2021/01/21 20:28:17;;;;;;;5.47;1.60;;;6.90;99.90;;;;;;5020530;23;20237;-92
2021/01/21 20:30:42;;;;;;;5.80;1.20;;;6.80;99.90;;;;;;4987971;28;20186;-91
2021/01/21 20:33:08;;;;;;;6.30;1.43;;;6.80;99.90;;;;;;4987687;28;20241;-92
2021/01/21 20:35:33;;;;;;;3.33;1.17;;;6.80;99.90;;;;;;4990639;28;20283;-92
2021/01/21 20:38:00;;;;;;;5.53;1.40;;;6.90;99.90;;;;;;4993697;28;20197;-93
